Time;durP1;ratioP1;P1;durP2;ratioP2;P2;SDS_P1;SDS_P2;PMS_P1;PMS_P2;Temp;Humidity;BMP_temperature;BMP_pressure;BME280_temperature;BME280_humidity;BME280_pressure;Samples;Min_cycle;Max_cycle;Signal;HPM_P1;HPM_P2
2023/03/11 07:35:08;;;;;;;0.60;0.60;;;6.00;99.90;9.30;100819.00;;;;6317120;22;1351575;-75
2023/03/11 07:38:32;;;;;;;0.53;0.53;;;6.20;99.90;6.80;100762.00;;;;6312213;22;20152;-75
2023/03/11 07:41:47;;;;;;;0.40;0.40;;;5.60;99.90;9.40;100816.00;;;;6340559;22;20166;-75
2023/03/11 07:48:25;;;;;;;0.40;0.40;;;6.10;99.90;12.10;100834.00;;;;6317619;22;20217;-75
2023/03/11 07:51:27;;;;;;;0.60;0.60;;;8.00;99.90;13.40;100856.00;;;;6320541;22;20208;-75
2023/03/11 07:54:20;;;;;;;0.53;0.53;;;9.80;99.90;9.80;100871.00;;;;6338708;22;20140;-74
2023/03/11 07:57:24;;;;;;;0.97;0.97;;;8.40;99.90;11.00;100876.00;;;;6338764;22;20143;-73
2023/03/11 08:00:15;;;;;;;0.30;0.30;;;8.60;99.90;10.00;100887.00;;;;6312826;22;20214;-74
2023/03/11 08:03:22;;;;;;;0.30;0.30;;;7.70;99.90;8.60;100865.00;;;;6336329;22;20240;-74
2023/03/11 08:06:31;;;;;;;1.50;1.40;;;6.90;99.90;11.30;100869.00;;;;6338875;22;20195;-74
2023/03/11 08:09:10;;;;;;;0.30;0.30;;;8.00;99.90;12.60;100877.00;;;;6312618;22;20199;-74
2023/03/11 08:12:14;;;;;;;0.20;0.20;;;9.10;99.90;14.20;100889.00;;;;6338819;22;20146;-74
2023/03/11 08:15:25;;;;;;;0.20;0.20;;;10.50;99.90;10.90;100942.00;;;;6338621;22;20231;-74
2023/03/11 08:18:33;;;;;;;0.20;0.20;;;9.20;99.90;11.00;100870.00;;;;6339918;22;20205;-74
2023/03/11 08:21:57;;;;;;;0.20;0.20;;;8.60;99.90;11.70;100914.00;;;;6338353;22;20172;-74
2023/03/11 08:25:12;;;;;;;0.20;0.20;;;8.70;99.90;11.10;100961.00;;;;6314882;22;20160;-74
2023/03/11 08:28:33;;;;;;;1.00;1.00;;;9.40;99.90;12.00;100952.00;;;;6339701;22;20137;-73
2023/03/11 08:31:37;;;;;;;0.67;0.67;;;9.40;99.90;13.50;100914.00;;;;6338580;22;20619;-74
2023/03/11 08:34:41;;;;;;;0.20;0.20;;;10.00;99.90;14.90;100919.00;;;;6330829;22;20167;-74
2023/03/11 08:37:59;;;;;;;0.20;0.20;;;11.10;99.90;15.10;100905.00;;;;6312549;22;20695;-74
2023/03/11 08:41:03;;;;;;;0.10;0.10;;;11.70;99.90;13.50;100937.00;;;;6337983;22;20584;-74
2023/03/11 08:44:10;;;;;;;0.10;0.10;;;10.90;99.90;15.10;100893.00;;;;6314450;22;20249;-74
2023/03/11 08:47:13;;;;;;;0.10;0.10;;;11.40;99.90;15.70;100877.00;;;;6289284;22;20159;-74
2023/03/11 08:50:16;;;;;;;0.10;0.10;;;11.90;99.90;12.30;100920.00;;;;6337791;22;20152;-74
2023/03/11 08:53:42;;;;;;;0.10;0.10;;;10.80;99.90;15.10;100891.00;;;;6312250;22;20163;-74
2023/03/11 08:56:44;;;;;;;0.10;0.10;;;11.10;99.90;12.50;100933.00;;;;6304285;22;20159;-74
2023/03/11 09:00:08;;;;;;;2.67;2.57;;;11.00;99.90;13.50;100935.00;;;;6338283;22;20149;-74
2023/03/11 09:03:14;;;;;;;0.20;0.20;;;10.30;99.90;13.90;100905.00;;;;6340060;22;20171;-74
2023/03/11 09:06:18;;;;;;;0.23;0.23;;;11.20;99.90;15.70;100959.00;;;;6338011;22;20184;-74
2023/03/11 09:09:21;;;;;;;0.50;0.50;;;11.70;99.90;16.10;100990.00;;;;6318481;22;20607;-74
2023/03/11 09:12:29;;;;;;;0.10;0.10;;;12.40;99.90;13.70;101023.00;;;;6312372;22;20228;-74
2023/03/11 09:15:39;;;;;;;0.20;0.20;;;12.20;99.90;15.90;101002.00;;;;6339374;22;20156;-74
2023/03/11 09:19:08;;;;;;;0.30;0.30;;;12.20;99.90;17.10;100992.00;;;;6293337;22;20164;-74
2023/03/11 09:22:09;;;;;;;0.10;0.10;;;13.00;99.90;14.60;100986.00;;;;6305260;22;20158;-74
2023/03/11 09:25:21;;;;;;;0.13;0.13;;;12.10;99.90;14.70;100983.00;;;;6337515;22;20589;-74
2023/03/11 09:28:25;;;;;;;0.10;0.10;;;12.50;99.90;12.60;101023.00;;;;6312496;22;20187;-74
2023/03/11 09:31:47;;;;;;;0.20;0.20;;;10.80;99.90;12.90;101013.00;;;;6337764;22;20158;-74
2023/03/11 09:34:47;;;;;;;0.10;0.10;;;10.50;99.90;12.00;101012.00;;;;6321820;22;20136;-74
2023/03/11 09:38:06;;;;;;;0.10;0.10;;;10.20;99.90;11.70;101009.00;;;;6338089;22;20154;-74
2023/03/11 09:41:15;;;;;;;0.17;0.17;;;10.10;99.90;13.60;100998.00;;;;6338977;22;20165;-74
2023/03/11 09:44:50;;;;;;;1.03;0.57;;;10.20;99.90;12.00;101011.00;;;;6338740;22;20180;-74
2023/03/11 09:48:04;;;;;;;0.10;0.10;;;10.10;99.90;12.60;101016.00;;;;6213212;23;20562;-74
2023/03/11 09:50:59;;;;;;;0.30;0.30;;;10.00;99.90;9.00;101035.00;;;;6212750;23;20695;-74
2023/03/11 09:54:11;;;;;;;0.30;0.30;;;8.50;99.90;9.40;101045.00;;;;6188083;23;20553;-74
2023/03/11 09:57:26;;;;;;;0.10;0.10;;;7.10;99.90;12.40;101025.00;;;;6213077;23;20246;-74
2023/03/11 10:04:25;;;;;;;0.30;0.30;;;9.40;99.90;13.70;101024.00;;;;6203117;23;20187;-74
2023/03/11 10:07:41;;;;;;;0.17;0.17;;;9.70;99.90;12.80;101020.00;;;;6213095;23;20536;-74
2023/03/11 10:10:59;;;;;;;0.10;0.10;;;11.10;99.90;14.60;101020.00;;;;6187626;23;20155;-74
2023/03/11 10:14:14;;;;;;;0.20;0.20;;;11.20;99.90;13.10;101039.00;;;;6163657;23;20164;-74
2023/03/11 10:17:24;;;;;;;0.30;0.30;;;11.70;99.90;13.90;101031.00;;;;6217943;22;20258;-74
2023/03/11 10:20:46;;;;;;;0.10;0.10;;;10.90;99.90;12.80;101043.00;;;;6338954;22;20149;-74
2023/03/11 10:34:40;;;;;;;0.10;0.10;;;9.70;99.90;12.70;101050.00;;;;5129077;27;21073;-73
2023/03/11 10:37:51;;;;;;;0.33;0.33;;;10.20;99.90;9.70;101081.00;;;;5091455;28;20220;-74
2023/03/11 10:44:33;;;;;;;0.30;0.30;;;7.60;99.90;13.50;101026.00;;;;5091496;28;20183;-74
2023/03/11 10:47:35;;;;;;;0.20;0.20;;;9.40;99.90;13.50;101029.00;;;;5105857;28;21514;-74
2023/03/11 10:51:01;;;;;;;0.10;0.10;;;9.90;99.90;12.40;101022.00;;;;5101160;28;20176;-74
2023/03/11 10:57:33;;;;;;;6.20;0.73;;;11.20;99.90;14.80;101016.00;;;;5114364;28;20852;-74
2023/03/11 11:00:54;;;;;;;0.17;0.17;;;11.70;99.90;13.10;100948.00;;;;5099560;28;20188;-74
2023/03/11 11:03:57;;;;;;;0.30;0.30;;;11.30;99.90;14.10;101017.00;;;;5103543;28;20196;-74
2023/03/11 11:06:54;;;;;;;0.10;0.10;;;10.90;99.90;12.60;101025.00;;;;5121184;28;20201;-74
2023/03/11 11:10:12;;;;;;;0.43;0.43;;;10.70;99.90;13.70;101010.00;;;;5104771;28;20224;-74
2023/03/11 11:16:21;;;;;;;0.10;0.10;;;11.50;99.90;16.20;100997.00;;;;5089697;28;20279;-74
2023/03/11 11:19:26;;;;;;;0.10;0.10;;;12.60;99.90;14.90;100956.00;;;;5093648;28;20186;-73
2023/03/11 11:22:39;;;;;;;0.47;0.47;;;12.00;99.90;14.10;101004.00;;;;5093497;28;20197;-74
2023/03/11 11:25:57;;;;;;;0.27;0.27;;;11.70;99.90;13.20;101013.00;;;;5106543;28;20230;-73
2023/03/11 11:29:13;;;;;;;0.10;0.10;;;11.30;99.90;12.90;101033.00;;;;5094816;28;20663;-73
2023/03/11 11:32:22;;;;;;;0.10;0.10;;;10.00;99.90;14.80;100961.00;;;;5089201;28;20221;-73
2023/03/11 11:35:00;;;;;;;0.60;0.27;;;11.00;99.90;12.30;101044.00;;;;5092298;28;20182;-73
2023/03/11 11:37:51;;;;;;;0.17;0.17;;;10.40;99.90;11.00;101051.00;;;;5118161;28;20278;-73
2023/03/11 11:41:11;;;;;;;0.10;0.10;;;9.70;99.90;11.90;101029.00;;;;5125418;28;20208;-73
2023/03/11 11:44:00;;;;;;;0.10;0.10;;;9.10;99.90;13.70;101021.00;;;;5099603;28;20185;-73
2023/03/11 11:47:20;;;;;;;0.10;0.10;;;10.50;99.90;14.00;101011.00;;;;5095162;28;20269;-74
2023/03/11 11:50:47;;;;;;;0.20;0.20;;;11.60;99.90;13.90;101006.00;;;;5089007;28;20318;-74
2023/03/11 11:53:54;;;;;;;0.10;0.10;;;11.80;99.90;11.10;101040.00;;;;5083370;28;20200;-73
2023/03/11 11:57:14;;;;;;;0.20;0.20;;;10.30;99.90;13.10;101026.00;;;;5109507;28;20193;-74
2023/03/11 12:00:35;;;;;;;0.10;0.10;;;10.40;99.90;12.80;101035.00;;;;5094170;28;20656;-73
2023/03/11 12:03:46;;;;;;;0.20;0.20;;;10.30;99.90;14.90;101009.00;;;;5078898;28;20192;-74
2023/03/11 12:07:01;;;;;;;0.10;0.10;;;11.40;99.90;12.30;101035.00;;;;5085520;28;20193;-73
2023/03/11 12:10:18;;;;;;;0.70;0.70;;;10.90;99.90;14.90;101004.00;;;;5084993;28;20184;-74
2023/03/11 12:13:25;;;;;;;0.67;0.67;;;11.30;99.90;13.70;101007.00;;;;5089111;28;20211;-73
2023/03/11 12:16:34;;;;;;;0.10;0.10;;;11.30;99.90;13.50;101009.00;;;;5082191;28;20194;-73
2023/03/11 12:19:43;;;;;;;0.10;0.10;;;11.20;99.90;10.50;101033.00;;;;5098838;28;20184;-73
2023/03/11 12:22:45;;;;;;;0.30;0.30;;;9.30;99.90;11.40;100983.00;;;;5085843;28;20197;-73
2023/03/11 12:28:45;;;;;;;0.10;0.10;;;10.00;99.90;12.70;101026.00;;;;5072262;28;20205;-73
2023/03/11 12:32:06;;;;;;;0.10;0.10;;;10.20;99.90;14.90;100983.00;;;;5089016;28;20541;-73
2023/03/11 12:35:36;;;;;;;0.20;0.20;;;11.30;99.90;14.40;101001.00;;;;5101172;28;20185;-73
2023/03/11 12:38:56;;;;;;;0.40;0.40;;;11.30;99.90;14.90;100943.00;;;;5096249;28;20194;-73
2023/03/11 12:42:16;;;;;;;0.10;0.10;;;12.10;99.90;15.10;100997.00;;;;5090926;28;20573;-73
2023/03/11 12:45:54;;;;;;;0.10;0.10;;;12.20;99.90;15.30;100977.00;;;;5077221;28;20239;-73
2023/03/11 12:49:09;;;;;;;0.20;0.20;;;12.60;99.90;13.30;101001.00;;;;5068658;28;20203;-73
2023/03/11 12:51:56;;;;;;;0.10;0.10;;;11.80;99.90;14.10;100992.00;;;;5086095;28;20192;-73
2023/03/11 12:54:51;;;;;;;0.10;0.10;;;11.50;99.90;13.50;100993.00;;;;5080070;28;20213;-73
2023/03/11 13:05:06;;;;;;;0.10;0.10;;;12.50;99.90;14.60;100977.00;;;;5086284;28;20248;-74
2023/03/11 13:08:22;;;;;;;0.20;0.20;;;12.60;99.90;15.00;100965.00;;;;5079063;28;20192;-74
2023/03/11 13:11:32;;;;;;;0.20;0.20;;;12.10;99.90;13.50;100991.00;;;;5087731;28;20304;-73
2023/03/11 13:14:29;;;;;;;0.27;0.27;;;11.30;99.90;13.60;100982.00;;;;5091963;28;20696;-73
2023/03/11 13:21:33;;;;;;;0.70;0.40;;;11.00;99.90;14.00;100977.00;;;;5088276;28;20665;-73
2023/03/11 13:24:35;;;;;;;0.20;0.13;;;11.50;99.90;12.00;100994.00;;;;5082128;28;20201;-73
2023/03/11 13:27:26;;;;;;;2.37;0.87;;;10.60;99.90;12.30;100985.00;;;;5086992;28;20190;-73
2023/03/11 13:34:17;;;;;;;0.33;0.33;;;10.30;99.90;12.50;100985.00;;;;5085251;28;20669;-73
2023/03/11 13:37:41;;;;;;;0.10;0.10;;;10.20;99.90;12.20;100985.00;;;;5071144;28;20198;-73
2023/03/11 13:41:26;;;;;;;0.20;0.20;;;9.90;99.90;11.30;100998.00;;;;5047961;28;20208;-72
2023/03/11 13:44:23;;;;;;;0.87;0.60;;;9.70;99.90;11.80;100986.00;;;;5073213;28;20191;-73
2023/03/11 13:47:41;;;;;;;0.10;0.10;;;9.30;99.90;12.90;100948.00;;;;5091722;28;20250;-73
2023/03/11 13:51:07;;;;;;;0.10;0.10;;;9.80;99.90;13.20;100976.00;;;;5101983;28;20191;-73
2023/03/11 13:54:25;;;;;;;0.10;0.10;;;10.30;99.90;13.60;100965.00;;;;5087038;28;20534;-72
2023/03/11 13:57:27;;;;;;;1.50;0.83;;;10.40;99.90;13.40;100969.00;;;;5054773;28;20214;-73
2023/03/11 14:00:51;;;;;;;0.10;0.10;;;10.70;99.90;12.50;100983.00;;;;5082566;28;20523;-72
2023/03/11 14:04:08;;;;;;;0.10;0.10;;;10.20;99.90;13.50;100977.00;;;;5091381;28;20651;-72
2023/03/11 14:07:34;;;;;;;0.40;0.40;;;10.60;99.90;12.10;100997.00;;;;5102008;28;20235;-72
2023/03/11 14:14:18;;;;;;;0.10;0.10;;;9.90;99.90;13.60;100983.00;;;;5083388;28;20195;-72
2023/03/11 14:17:40;;;;;;;0.10;0.10;;;10.50;99.90;14.20;100970.00;;;;5082224;28;20189;-73
2023/03/11 14:20:33;;;;;;;0.10;0.10;;;10.90;99.90;13.90;100983.00;;;;5075049;28;20184;-72
2023/03/11 14:23:47;;;;;;;0.20;0.20;;;11.10;99.90;12.60;101011.00;;;;5082180;28;20271;-72
2023/03/11 14:27:00;;;;;;;0.10;0.10;;;10.60;99.90;13.00;101001.00;;;;5086357;28;20192;-72
2023/03/11 14:30:12;;;;;;;0.30;0.30;;;10.30;99.90;12.90;101004.00;;;;5100695;28;20239;-73
2023/03/11 14:33:22;;;;;;;0.50;0.50;;;10.60;99.90;11.10;101025.00;;;;5074667;28;20233;-72
2023/03/11 14:36:30;;;;;;;0.50;0.40;;;9.60;99.90;11.40;100953.00;;;;5073560;28;20201;-72
2023/03/11 14:39:38;;;;;;;0.10;0.10;;;9.10;99.90;11.80;100979.00;;;;5082209;28;20191;-73
2023/03/11 14:43:14;;;;;;;0.10;0.10;;;9.10;99.90;13.50;101006.00;;;;5081671;28;20516;-73
2023/03/11 14:46:34;;;;;;;0.27;0.27;;;9.80;99.90;11.60;101027.00;;;;5067240;28;20558;-73
2023/03/11 14:49:58;;;;;;;0.10;0.10;;;9.70;99.90;12.80;101008.00;;;;5079739;28;20187;-73
2023/03/11 14:53:17;;;;;;;0.10;0.10;;;9.60;99.90;12.60;101017.00;;;;5089125;28;20202;-72
2023/03/11 14:56:12;;;;;;;0.10;0.10;;;9.70;99.90;11.50;101027.00;;;;5090100;28;20195;-72
2023/03/11 14:59:34;;;;;;;0.10;0.10;;;9.50;99.90;11.70;101029.00;;;;5077550;28;20633;-72
2023/03/11 15:02:43;;;;;;;0.10;0.10;;;9.30;99.90;11.90;101032.00;;;;5077134;28;20547;-72
2023/03/11 15:06:22;;;;;;;0.10;0.10;;;9.10;99.90;12.30;101016.00;;;;5093596;28;20653;-72
2023/03/11 15:09:28;;;;;;;0.10;0.10;;;9.00;99.90;13.30;100985.00;;;;5073394;28;20263;-73
2023/03/11 15:16:46;;;;;;;2.90;2.80;;;9.80;99.90;13.30;101005.00;;;;5043462;28;20195;-73
2023/03/11 15:19:44;;;;;;;0.10;0.10;;;9.80;99.90;12.00;101013.00;;;;5043388;28;20203;-73
2023/03/11 15:22:31;;;;;;;0.83;0.83;;;9.70;99.90;12.70;101010.00;;;;5027425;28;21136;-72
2023/03/11 15:26:00;;;;;;;0.13;0.13;;;9.50;99.90;12.00;101009.00;;;;5053891;28;20267;-72
2023/03/11 15:29:03;;;;;;;0.30;0.30;;;9.20;99.90;12.80;100998.00;;;;5065794;28;20199;-73
2023/03/11 15:31:46;;;;;;;0.10;0.10;;;9.50;99.90;12.80;100943.00;;;;5082938;28;20219;-73
2023/03/11 15:34:45;;;;;;;0.10;0.10;;;9.60;99.90;12.10;100999.00;;;;5080456;28;20267;-73
2023/03/11 15:38:12;;;;;;;0.10;0.10;;;9.10;99.90;12.90;100998.00;;;;5098169;28;20514;-72
2023/03/11 15:41:33;;;;;;;0.10;0.10;;;9.50;99.90;12.80;101000.00;;;;5079070;28;20546;-72
2023/03/11 15:44:40;;;;;;;0.10;0.10;;;9.60;99.90;12.90;100944.00;;;;5082802;28;20183;-73
2023/03/11 15:47:37;;;;;;;0.80;0.80;;;9.60;99.90;13.00;100990.00;;;;5106016;28;20671;-73
2023/03/11 15:51:11;;;;;;;2.20;2.10;;;9.90;99.90;11.60;100992.00;;;;5071911;28;20229;-72
2023/03/11 15:54:29;;;;;;;1.13;0.50;;;9.10;99.90;11.10;101001.00;;;;5088694;28;20197;-72
2023/03/11 15:57:23;;;;;;;0.30;0.30;;;8.70;99.90;11.20;101003.00;;;;5083416;28;20187;-73
2023/03/11 16:00:52;;;;;;;0.10;0.10;;;8.80;99.90;12.00;100981.00;;;;5073591;28;20189;-73
2023/03/11 16:04:11;;;;;;;0.70;0.70;;;8.80;99.90;12.50;100834.00;;;;5089211;28;20210;-73
2023/03/11 16:07:17;;;;;;;0.10;0.10;;;9.00;99.90;11.90;100982.00;;;;5074511;28;20186;-73
2023/03/11 16:10:20;;;;;;;0.10;0.10;;;9.30;99.90;11.90;100982.00;;;;5092775;28;20192;-73
2023/03/11 16:13:40;;;;;;;0.20;0.20;;;9.20;99.90;12.00;100965.00;;;;5106581;28;20198;-73
2023/03/11 16:16:46;;;;;;;1.37;1.07;;;9.00;99.90;10.10;100938.00;;;;5090844;28;20177;-73
2023/03/11 16:20:07;;;;;;;0.10;0.10;;;8.40;99.90;10.80;100986.00;;;;5106565;28;20184;-73
2023/03/11 16:23:32;;;;;;;0.10;0.10;;;8.30;99.90;12.30;100980.00;;;;5108251;28;20206;-73
2023/03/11 16:26:34;;;;;;;0.10;0.10;;;8.60;99.90;12.40;100978.00;;;;5092925;28;20206;-73
2023/03/11 16:29:22;;;;;;;0.10;0.10;;;9.10;99.90;10.40;101008.00;;;;5093091;28;20194;-73
2023/03/11 16:32:24;;;;;;;0.10;0.10;;;8.50;99.90;11.40;100935.00;;;;5069971;28;20270;-73
2023/03/11 16:35:52;;;;;;;0.40;0.40;;;8.30;99.90;10.20;101008.00;;;;5068849;28;20189;-73
2023/03/11 16:38:53;;;;;;;0.10;0.10;;;8.30;99.90;11.60;100999.00;;;;5091431;28;20246;-73
2023/03/11 16:41:47;;;;;;;0.10;0.10;;;8.40;99.90;11.60;100923.00;;;;5088916;28;20715;-73
2023/03/11 16:44:57;;;;;;;0.10;0.10;;;8.40;99.90;12.30;100983.00;;;;5087081;28;20205;-73
2023/03/11 16:48:16;;;;;;;0.10;0.10;;;8.80;99.90;11.00;100975.00;;;;5070378;28;20180;-73
2023/03/11 16:51:43;;;;;;;0.10;0.10;;;9.00;99.90;11.30;101009.00;;;;5086862;28;20176;-73
2023/03/11 16:54:56;;;;;;;0.10;0.10;;;8.40;99.90;12.30;100995.00;;;;5097452;28;20186;-73
2023/03/11 16:58:14;;;;;;;0.10;0.10;;;8.90;99.90;11.60;100995.00;;;;5089581;28;20183;-73
2023/03/11 17:01:20;;;;;;;0.10;0.10;;;8.80;99.90;11.90;101001.00;;;;5109333;28;20196;-73
2023/03/11 17:04:21;;;;;;;0.10;0.10;;;8.80;99.90;11.90;100985.00;;;;5074731;28;20215;-73
2023/03/11 17:07:13;;;;;;;0.10;0.10;;;8.90;99.90;10.90;100994.00;;;;5069863;28;20191;-73
2023/03/11 17:10:34;;;;;;;0.40;0.40;;;8.60;99.90;11.10;101009.00;;;;5099387;28;20545;-73
2023/03/11 17:13:55;;;;;;;0.10;0.10;;;8.30;99.90;12.00;101002.00;;;;5091063;28;20205;-73
2023/03/11 17:17:19;;;;;;;0.10;0.10;;;8.70;99.90;12.00;101007.00;;;;5084228;28;20189;-73
2023/03/11 17:20:38;;;;;;;0.10;0.10;;;8.80;99.90;11.80;100990.00;;;;5091756;28;20337;-73
2023/03/11 17:23:57;;;;;;;0.10;0.10;;;8.70;99.90;11.50;100994.00;;;;5103690;28;20179;-73
2023/03/11 17:27:16;;;;;;;0.10;0.10;;;8.60;99.90;11.30;101007.00;;;;5107143;28;20187;-73
2023/03/11 17:30:31;;;;;;;0.10;0.10;;;8.40;99.90;11.10;101020.00;;;;5102858;28;20193;-73
2023/03/11 17:33:50;;;;;;;0.10;0.10;;;8.40;99.90;12.00;100967.00;;;;5089191;28;20695;-73
2023/03/11 17:36:43;;;;;;;0.10;0.10;;;8.40;99.90;11.80;100996.00;;;;5079240;28;20186;-73
2023/03/11 17:40:05;;;;;;;0.10;0.10;;;8.80;99.90;11.70;100977.00;;;;5055484;28;20197;-73
2023/03/11 17:43:29;;;;;;;0.10;0.10;;;8.60;99.90;11.00;101007.00;;;;5088460;28;20197;-73
2023/03/11 17:46:52;;;;;;;0.13;0.13;;;8.40;99.90;11.50;101023.00;;;;5077491;28;20522;-73
2023/03/11 17:50:02;;;;;;;0.10;0.10;;;8.30;99.90;11.70;100961.00;;;;5089514;28;20196;-73
2023/03/11 17:53:21;;;;;;;0.10;0.10;;;8.60;99.90;11.20;101029.00;;;;5101031;28;20684;-73
2023/03/11 17:56:45;;;;;;;0.10;0.10;;;8.30;99.90;10.80;101048.00;;;;5096024;28;20193;-73
2023/03/11 18:00:06;;;;;;;0.10;0.10;;;8.10;99.90;11.50;101028.00;;;;5062647;28;20187;-73
2023/03/11 18:03:35;;;;;;;0.10;0.10;;;8.20;99.90;10.90;101059.00;;;;5085366;28;20193;-73
2023/03/11 18:06:44;;;;;;;0.10;0.10;;;8.10;99.90;10.70;101056.00;;;;5096122;28;20279;-73
2023/03/11 18:14:12;;;;;;;0.10;0.10;;;7.80;99.90;10.50;101071.00;;;;5093660;28;20240;-73
2023/03/11 18:17:47;;;;;;;0.10;0.10;;;7.70;99.90;11.20;100999.00;;;;5088421;28;20542;-72
2023/03/11 18:20:48;;;;;;;0.10;0.10;;;7.80;99.90;11.30;101042.00;;;;5107265;28;20181;-73
2023/03/11 18:24:31;;;;;;;0.10;0.10;;;7.90;99.90;12.00;101053.00;;;;5082123;28;20177;-73
2023/03/11 18:27:49;;;;;;;0.10;0.10;;;8.20;99.90;11.70;101046.00;;;;5081393;28;20202;-73
2023/03/11 18:30:55;;;;;;;0.50;0.50;;;8.40;99.90;11.90;101046.00;;;;5073288;28;20644;-73
2023/03/11 18:33:58;;;;;;;0.30;0.30;;;8.40;99.90;11.30;101053.00;;;;5100937;28;20248;-73
2023/03/11 18:36:59;;;;;;;0.10;0.10;;;8.20;99.90;11.40;101054.00;;;;5075202;28;20553;-72
2023/03/11 18:40:04;;;;;;;0.10;0.10;;;8.10;99.90;11.20;101064.00;;;;5078745;28;20227;-72
2023/03/11 18:43:13;;;;;;;0.10;0.10;;;8.00;99.90;10.90;101077.00;;;;5086124;28;20180;-73
2023/03/11 18:46:34;;;;;;;0.20;0.20;;;7.80;99.90;10.50;101044.00;;;;5075884;28;20201;-72
2023/03/11 18:49:38;;;;;;;0.10;0.10;;;7.50;99.90;10.30;101078.00;;;;5072159;28;20604;-72
2023/03/11 18:53:02;;;;;;;0.10;0.10;;;7.40;99.90;10.50;101072.00;;;;5082162;28;20213;-72
2023/03/11 18:56:12;;;;;;;0.20;0.20;;;7.40;99.90;10.50;101087.00;;;;5085722;28;20700;-73
2023/03/11 18:59:07;;;;;;;0.40;0.40;;;7.40;99.90;10.50;101088.00;;;;5082780;28;20174;-73
2023/03/11 19:01:58;;;;;;;0.10;0.10;;;7.30;99.90;10.30;101021.00;;;;5082585;28;20264;-73
2023/03/11 19:05:03;;;;;;;0.90;0.90;;;7.20;99.90;10.00;101054.00;;;;5087516;28;20185;-72
2023/03/11 19:08:29;;;;;;;0.10;0.10;;;7.10;99.90;10.70;101085.00;;;;5109541;28;20192;-72
2023/03/11 19:11:46;;;;;;;0.20;0.20;;;7.10;99.90;10.60;101087.00;;;;5080981;28;20181;-72
2023/03/11 19:15:10;;;;;;;0.20;0.20;;;7.20;99.90;10.60;101031.00;;;;5084202;28;20224;-73
2023/03/11 19:18:17;;;;;;;0.20;0.20;;;7.20;99.90;10.00;101099.00;;;;5083902;28;20192;-72
2023/03/11 19:21:36;;;;;;;0.20;0.20;;;7.10;99.90;10.20;101082.00;;;;5080942;28;20185;-73
2023/03/11 19:24:31;;;;;;;0.10;0.10;;;7.00;99.90;10.30;101077.00;;;;5082420;28;20182;-72
2023/03/11 19:27:59;;;;;;;0.40;0.40;;;7.00;99.90;10.00;101084.00;;;;5088405;28;20179;-72
2023/03/11 19:31:21;;;;;;;0.20;0.20;;;6.90;99.90;10.50;101076.00;;;;5087935;28;20194;-72
2023/03/11 19:34:42;;;;;;;0.10;0.10;;;6.90;99.90;9.90;101096.00;;;;5075724;28;20181;-72
2023/03/11 19:37:53;;;;;;;0.20;0.20;;;6.90;99.90;10.60;101084.00;;;;5087171;28;20180;-73
2023/03/11 19:41:06;;;;;;;0.30;0.30;;;7.00;99.90;10.40;101078.00;;;;5082685;28;20177;-72
2023/03/11 19:44:24;;;;;;;0.60;0.60;;;7.10;99.90;10.10;101069.00;;;;5093367;28;20642;-73
2023/03/11 19:47:50;;;;;;;0.20;0.20;;;7.00;99.90;10.10;101084.00;;;;5087122;28;20166;-72
2023/03/11 19:51:11;;;;;;;0.83;0.83;;;7.00;99.90;10.40;101028.00;;;;5077896;28;20707;-72
2023/03/11 19:54:19;;;;;;;0.20;0.20;;;7.00;99.90;10.70;101089.00;;;;5103993;28;20677;-72
2023/03/11 19:57:43;;;;;;;0.20;0.20;;;7.20;99.90;10.10;101096.00;;;;5109555;28;20187;-72
2023/03/11 20:00:47;;;;;;;0.10;0.10;;;7.20;99.90;10.30;101095.00;;;;5107887;28;20221;-72
2023/03/11 20:04:05;;;;;;;0.20;0.20;;;7.20;99.90;10.50;101101.00;;;;5084759;28;20645;-72
2023/03/11 20:07:16;;;;;;;0.20;0.20;;;7.20;99.90;10.50;101106.00;;;;5106479;28;20194;-72
2023/03/11 20:14:16;;;;;;;0.20;0.20;;;7.20;99.90;10.80;101091.00;;;;5091643;28;20209;-72
2023/03/11 20:17:45;;;;;;;0.10;0.10;;;7.20;99.90;10.60;101099.00;;;;5099859;28;20558;-72
2023/03/11 20:21:04;;;;;;;0.40;0.40;;;7.20;99.90;10.80;101094.00;;;;5108292;28;20248;-72
2023/03/11 20:24:25;;;;;;;0.20;0.20;;;7.20;99.90;10.70;101059.00;;;;5094038;28;20176;-72
2023/03/11 20:27:43;;;;;;;0.20;0.20;;;7.30;99.90;10.20;101092.00;;;;5088093;28;20195;-72
2023/03/11 20:30:47;;;;;;;0.30;0.30;;;7.20;99.90;10.40;101093.00;;;;5100632;28;20206;-73
2023/03/11 20:34:13;;;;;;;0.20;0.20;;;7.20;99.90;10.50;101102.00;;;;5102190;28;20217;-72
2023/03/11 20:37:17;;;;;;;0.77;0.77;;;7.20;99.90;10.20;101079.00;;;;5090254;28;20647;-72
2023/03/11 20:40:26;;;;;;;0.20;0.20;;;7.00;99.90;10.30;101039.00;;;;5111036;28;20187;-72
2023/03/11 20:43:49;;;;;;;0.10;0.10;;;6.90;99.90;10.10;101086.00;;;;5103971;28;20651;-72
2023/03/11 20:47:08;;;;;;;0.20;0.20;;;7.00;99.90;9.70;101081.00;;;;5080373;28;20243;-72
2023/03/11 20:50:30;;;;;;;0.20;0.20;;;6.90;99.90;9.80;101072.00;;;;5097732;28;20230;-72
2023/03/11 20:53:59;;;;;;;0.10;0.10;;;6.80;99.90;9.70;101088.00;;;;5075230;28;20284;-72
2023/03/11 20:57:21;;;;;;;0.60;0.60;;;6.60;99.90;10.10;101071.00;;;;5081011;28;20245;-72
